Terminal Aerodrome Forecast
Issued by NWS

Home | Current Version | Previous Version | Graphics & Text | Print | Product List | Glossary Off
Versions: 1 2 3 4 5 6 7 8 9 10 11 12 13 14 15 16 17

000
FTUS43 KFGF 201700
TAFBJI
TAF
KBJI 201728Z 2018/2118 19007KT 5SM BR OVC004
      TEMPO 2018/2022 2SM BR
     FM202200 16007KT 5SM BR OVC005
     FM210300 16009KT 4SM BR OVC004
     FM210900 16010KT 5SM BR OVC005
      AMD NOT SKED=

USA.gov is the U.S. government's official web portal to all federal, state and local government web resources and services.